Terminal Aerodrome Forecast
Issued by NWS

Home | Current Version | Previous Version | Text Only | Print | Product List | Glossary On
Versions: 1 2 3 4 5 6 7 8 9 10 11 12
000
FTUS43 KDTX 302300
TAFDET
TAF
KDET 302320Z 0100/0124 34008KT P6SM BKN018 OVC025
     FM010600 35005KT 6SM HZ BKN014 OVC024
     FM010900 36003KT 5SM BR BKN008 OVC014
     FM011400 05005KT P6SM OVC018
     FM011900 08005KT P6SM BKN022=

USA.gov is the U.S. government's official web portal to all federal, state and local government web resources and services.